Broken Arrow, OK

8:57 AM CDT on August 26, 2016 (GMT -0500)
APRSWXNET | | Change Station

Elev 590 ft 36.07 °N, 95.62 °W | Updated 27 minutes ago

Scattered Clouds
Scattered Clouds
76.0 °F
Feels Like 76.0 °F
N
5.0
Wind Variable Wind from SE
Gusts 6.0 mph

Today
High -- | Low -- °F
--% Chance of Precip.
Yesterday
High -- | Low -- °F
Precip. -- in
Pressure 30.04 in
Visibility 10.0 miles
Clouds Scattered Clouds 25000 ft
Dew Point Not available.
Humidity Not available.
Rainfall in
Snow Depth Not available.
6:49 AM 7:57 PM
Waning Crescent, 34% visible
METAR KTUL 261353Z 12005KT 10SM SCT250 26/22 A3006 RMK AO2 SLP171 T02560222
Pressure 30.04 in
Visibility 10.0 miles
Clouds Scattered Clouds 25000 ft
Dew Point Not available.
Humidity Not available.
Rainfall in
Snow Depth Not available.
6:49 AM 7:57 PM
Waning Crescent, 34% visible
METAR KTUL 261353Z 12005KT 10SM SCT250 26/22 A3006 RMK AO2 SLP171 T02560222

10-Day Weather Forecast

Almanac

Astronomy

Aug. 26, 2016 Rise Set
Actual Time
Civil Twilight
Nautical Twilight
Astronomical Twilight
Moon
Length of Visible Light
Length of Day
Tomorrow will be .
, % of the Moon is Illuminated

Today's Extremes

State Highs State Lows

Community

WunderPhotos

Upload Photos

1,935,084 photos uploaded!

WunderBlog® & News

Nearby

Air Quality

  Air Quality AQ Index Pollutant
Not available.

Snow Depth

Station Depth Elevation

Earthquake Activity

City Distance Mag. Time & Date
Minimum magnitude displayed is 2.5.

Coastal Water Temperatures

Place Temperature

Stations

Nearby Weather Stations

Station Location Temp. Windchill Dew Point Humidity Wind Precip. Elev Updated Type
                   

Watches & Warnings

There are currently no watches in effect.